Time;durP1;ratioP1;P1;durP2;ratioP2;P2;SDS_P1;SDS_P2;PMS_P1;PMS_P2;Temp;Humidity;BMP_temperature;BMP_pressure;BME280_temperature;BME280_humidity;BME280_pressure;Samples;Min_cycle;Max_cycle;Signal;HPM_P1;HPM_P2
2022/08/06 00:00:13;;;;;;;14.25;11.75;;;;;;;16.26;100.00;93602.38;2131270;27;20059;-72
2022/08/06 00:01:14;;;;;;;15.38;11.73;;;;;;;16.24;100.00;93600.13;2131252;27;20076;-72
2022/08/06 00:02:15;;;;;;;17.13;11.70;;;;;;;16.27;100.00;93599.22;2131264;27;20030;-73
2022/08/06 00:03:16;;;;;;;15.35;12.25;;;;;;;16.11;100.00;93600.19;2130296;27;20026;-73
2022/08/06 00:04:18;;;;;;;16.25;11.95;;;;;;;16.11;100.00;93605.59;2131282;27;20134;-72
2022/08/06 00:05:19;;;;;;;14.73;11.73;;;;;;;16.10;100.00;93601.38;2131334;27;20046;-73
2022/08/06 00:06:19;;;;;;;18.88;12.48;;;;;;;16.15;100.00;93597.34;2131440;27;20034;-73
2022/08/06 00:07:20;;;;;;;14.90;12.40;;;;;;;16.14;100.00;93601.25;2131327;27;20468;-72
2022/08/06 00:08:21;;;;;;;21.85;12.80;;;;;;;16.11;100.00;93599.41;2130151;27;20031;-72
2022/08/06 00:09:22;;;;;;;15.07;12.35;;;;;;;16.15;100.00;93604.69;2131489;27;20034;-73
2022/08/06 00:10:24;;;;;;;25.65;12.52;;;;;;;16.17;100.00;93607.72;2130036;27;20027;-73
2022/08/06 00:11:25;;;;;;;18.45;12.65;;;;;;;16.14;100.00;93601.25;2131340;27;20042;-71
2022/08/06 00:12:25;;;;;;;14.10;12.52;;;;;;;16.08;100.00;93603.75;2131163;27;20034;-72
2022/08/06 00:13:26;;;;;;;18.00;12.65;;;;;;;16.10;100.00;93601.38;2130123;27;20042;-72
2022/08/06 00:14:28;;;;;;;16.35;13.38;;;;;;;16.09;100.00;93601.81;2131129;27;20046;-73
2022/08/06 00:15:30;;;;;;;17.23;12.93;;;;;;;15.99;100.00;93595.59;2131147;27;20019;-72
2022/08/06 00:16:31;;;;;;;17.58;13.30;;;;;;;16.03;100.00;93601.63;2131305;27;20072;-72
2022/08/06 00:17:32;;;;;;;23.98;14.00;;;;;;;16.04;100.00;93597.72;2131141;27;20101;-72
2022/08/06 00:18:33;;;;;;;15.55;12.90;;;;;;;16.09;100.00;93599.88;2130319;27;20079;-72
2022/08/06 00:19:34;;;;;;;18.20;13.13;;;;;;;16.11;100.00;93602.88;2131101;27;20372;-72
2022/08/06 00:20:35;;;;;;;17.55;13.38;;;;;;;16.06;100.00;93598.03;2130769;27;20033;-72
2022/08/06 00:21:36;;;;;;;17.67;13.32;;;;;;;16.00;100.00;93602.50;2131250;27;20025;-72
2022/08/06 00:22:37;;;;;;;17.45;13.30;;;;;;;15.91;100.00;93607.06;2131249;27;20034;-72
2022/08/06 00:23:38;;;;;;;18.63;13.40;;;;;;;15.91;100.00;93607.06;2128020;27;20026;-72
2022/08/06 00:24:39;;;;;;;16.52;12.93;;;;;;;16.05;100.00;93604.63;2131033;27;20368;-72
2022/08/06 00:25:40;;;;;;;24.25;13.52;;;;;;;16.13;100.00;93607.84;2131102;27;20033;-72
2022/08/06 00:26:41;;;;;;;17.60;12.50;;;;;;;16.13;100.00;93604.38;2131203;27;20373;-72
2022/08/06 00:27:42;;;;;;;14.20;11.82;;;;;;;16.11;100.00;93610.19;2131093;27;20026;-71
2022/08/06 00:28:43;;;;;;;16.48;12.13;;;;;;;16.19;100.00;93613.41;2130875;27;20103;-71
2022/08/06 00:29:44;;;;;;;20.83;13.27;;;;;;;16.15;100.00;93618.19;2130330;27;20117;-72
2022/08/06 00:30:45;;;;;;;17.10;12.98;;;;;;;16.03;100.00;93615.13;2131220;27;20364;-72
2022/08/06 00:31:46;;;;;;;15.80;12.20;;;;;;;15.96;100.00;93617.28;2131122;27;20031;-72
2022/08/06 00:32:47;;;;;;;15.20;12.73;;;;;;;16.00;100.00;93624.06;2131119;27;20033;-72
2022/08/06 00:33:48;;;;;;;14.48;12.23;;;;;;;16.02;100.00;93624.41;2129129;27;20042;-72
2022/08/06 00:34:49;;;;;;;17.27;12.77;;;;;;;15.98;100.00;93621.06;2130321;27;20031;-72
2022/08/06 00:35:50;;;;;;;20.35;12.50;;;;;;;15.94;100.00;93619.69;2131062;27;20098;-72
2022/08/06 00:36:52;;;;;;;16.20;12.43;;;;;;;15.92;100.00;93622.81;2131079;27;20412;-72
2022/08/06 00:37:52;;;;;;;15.25;12.45;;;;;;;15.93;100.00;93623.56;2131155;27;20042;-72
2022/08/06 00:38:54;;;;;;;14.32;11.60;;;;;;;15.90;100.00;93611.72;2130986;27;20038;-72
2022/08/06 00:39:55;;;;;;;16.05;12.35;;;;;;;15.94;100.00;93619.69;2128916;27;20038;-72
2022/08/06 00:40:56;;;;;;;16.80;12.27;;;;;;;15.95;100.00;93623.88;2131074;27;20031;-72
2022/08/06 00:41:57;;;;;;;23.55;13.00;;;;;;;15.88;100.00;93622.16;2131051;27;20026;-72
2022/08/06 00:43:00;;;;;;;15.38;12.00;;;;;;;15.99;100.00;93616.44;2130970;27;20046;-72
2022/08/06 00:44:01;;;;;;;17.77;11.73;;;;;;;15.89;100.00;93617.53;2131003;27;20022;-72
2022/08/06 00:45:04;;;;;;;13.50;11.73;;;;;;;15.87;100.00;93631.44;2129005;27;20034;-72
2022/08/06 00:46:05;;;;;;;18.08;11.85;;;;;;;15.75;100.00;93629.53;2130716;27;20361;-71
2022/08/06 00:47:05;;;;;;;14.55;11.82;;;;;;;15.84;100.00;93626.94;2131071;27;20095;-72
2022/08/06 00:48:06;;;;;;;17.17;11.80;;;;;;;15.87;100.00;93628.75;2130981;27;20086;-72
2022/08/06 00:49:08;;;;;;;14.00;11.95;;;;;;;15.87;100.00;93631.44;2128761;27;20177;-72
2022/08/06 00:50:09;;;;;;;16.13;11.45;;;;;;;15.85;100.00;93639.25;2129520;27;20038;-71
2022/08/06 00:51:10;;;;;;;15.18;12.10;;;;;;;15.82;100.00;93632.75;2131034;27;20103;-72
2022/08/06 00:52:11;;;;;;;14.85;11.43;;;;;;;15.95;100.00;93632.72;2130976;27;20069;-72
2022/08/06 00:53:12;;;;;;;15.77;10.32;;;;;;;15.84;100.00;93626.94;2130863;27;20031;-72
2022/08/06 00:54:13;;;;;;;13.85;9.95;;;;;;;15.80;100.00;93634.38;2130324;27;20050;-72
2022/08/06 00:55:14;;;;;;;12.93;10.43;;;;;;;15.79;100.00;93630.19;2130067;27;20082;-72
2022/08/06 00:56:15;;;;;;;11.48;10.02;;;;;;;15.84;100.00;93633.06;2130893;27;20174;-72
2022/08/06 00:57:16;;;;;;;12.80;10.30;;;;;;;15.89;100.00;93633.69;2130902;27;20022;-72
2022/08/06 00:58:17;;;;;;;12.57;10.18;;;;;;;15.75;100.00;93632.25;2130925;27;20026;-72
2022/08/06 00:59:18;;;;;;;11.02;9.68;;;;;;;15.91;100.00;93631.34;2130879;27;20031;-71
2022/08/06 01:00:19;;;;;;;11.20;9.20;;;;;;;15.91;100.00;93628.63;2129647;27;20030;-72
2022/08/06 01:01:20;;;;;;;16.38;9.73;;;;;;;15.91;100.00;93639.44;2130926;27;20023;-72
2022/08/06 01:02:21;;;;;;;12.60;9.40;;;;;;;15.86;100.00;93646.88;2130804;27;20099;-73
2022/08/06 01:03:22;;;;;;;9.73;8.68;;;;;;;15.85;100.00;93636.53;2130786;27;20046;-72
2022/08/06 01:04:23;;;;;;;11.15;8.88;;;;;;;15.73;100.00;93637.31;2130855;27;20456;-72
2022/08/06 01:05:24;;;;;;;9.85;8.20;;;;;;;15.67;100.00;93630.97;2130586;27;20015;-73
2022/08/06 01:06:25;;;;;;;10.13;8.23;;;;;;;15.76;100.00;93633.75;2130387;27;20029;-72
2022/08/06 01:07:27;;;;;;;11.82;7.90;;;;;;;15.70;100.00;93638.94;2130861;27;20375;-72
2022/08/06 01:08:28;;;;;;;8.93;7.93;;;;;;;15.76;100.00;93641.81;2127932;27;21603;-72
2022/08/06 01:09:28;;;;;;;8.85;7.60;;;;;;;15.75;100.00;93643.03;2129868;27;20034;-72
2022/08/06 01:10:29;;;;;;;11.20;8.20;;;;;;;15.75;100.00;93641.06;2130527;27;20041;-72
2022/08/06 01:11:30;;;;;;;10.77;7.93;;;;;;;15.69;100.00;93647.47;2129956;27;20101;-72
2022/08/06 01:12:31;;;;;;;8.10;7.30;;;;;;;15.56;100.00;93642.06;2130705;27;20457;-72
2022/08/06 01:13:33;;;;;;;9.75;7.82;;;;;;;15.59;100.00;93636.56;2130739;27;20027;-73
2022/08/06 01:14:34;;;;;;;9.20;7.35;;;;;;;15.55;100.00;93649.41;2130510;27;20049;-72
2022/08/06 01:15:37;;;;;;;8.88;7.38;;;;;;;15.72;100.00;93638.53;2127729;27;20455;-72
2022/08/06 01:16:49;;;;;;;9.10;6.88;;;;;;;15.78;100.00;93648.28;2129756;27;20031;-72
2022/08/06 01:18:05;;;;;;;8.65;6.30;;;;;;;15.55;100.00;93640.56;2119792;27;20350;-72
2022/08/06 01:19:21;;;;;;;10.02;6.35;;;;;;;15.51;100.00;93642.63;2123664;27;20030;-71
2022/08/06 01:20:28;;;;;;;8.63;6.30;;;;;;;15.46;100.00;93641.22;2130618;27;20045;-71
2022/08/06 01:21:49;;;;;;;6.78;6.07;;;;;;;15.40;100.00;93640.25;2129770;27;20027;-72
2022/08/06 01:22:56;;;;;;;8.23;6.78;;;;;;;15.34;100.00;93631.97;2130421;27;20023;-72
2022/08/06 01:24:33;;;;;;;9.80;6.25;;;;;;;15.41;100.00;93638.31;2130702;27;20113;-72
2022/08/06 01:26:04;;;;;;;7.93;6.35;;;;;;;15.34;100.00;93631.22;2130648;27;20031;-72
2022/08/06 01:27:33;;;;;;;7.57;6.10;;;;;;;15.36;100.00;93632.31;2130524;27;20480;-71
2022/08/06 01:28:43;;;;;;;8.68;5.82;;;;;;;15.34;100.00;93637.38;2130688;27;20449;-72
2022/08/06 01:29:51;;;;;;;7.03;5.47;;;;;;;15.29;100.00;93629.84;2130743;27;20058;-72
2022/08/06 01:31:01;;;;;;;6.13;5.32;;;;;;;15.30;100.00;93633.28;2130595;27;20369;-71
2022/08/06 01:32:10;;;;;;;6.90;5.25;;;;;;;15.27;100.00;93631.44;2129226;27;20084;-71
2022/08/06 01:33:20;;;;;;;6.60;4.93;;;;;;;15.17;100.00;93635.97;2119872;27;20027;-71
2022/08/06 01:34:27;;;;;;;8.15;5.45;;;;;;;15.25;100.00;93631.13;2123031;27;20073;-71
2022/08/06 01:35:34;;;;;;;11.23;6.68;;;;;;;15.20;100.00;93634.38;2130524;27;20042;-71
2022/08/06 01:36:47;;;;;;;7.72;4.78;;;;;;;15.07;100.00;93639.75;2128325;27;20018;-71
2022/08/06 01:38:04;;;;;;;8.35;5.05;;;;;;;15.09;100.00;93634.69;2130625;27;20054;-71
2022/08/06 01:39:05;;;;;;;8.75;5.55;;;;;;;15.08;100.00;93633.19;2130171;27;20038;-71
2022/08/06 01:40:11;;;;;;;9.02;5.55;;;;;;;15.03;100.00;93634.47;2130622;27;20058;-71
2022/08/06 01:41:38;;;;;;;7.88;5.43;;;;;;;15.02;100.00;93634.91;2130639;27;20023;-71
2022/08/06 01:42:40;;;;;;;5.63;4.80;;;;;;;15.13;100.00;93627.25;2128077;27;20023;-71
2022/08/06 01:43:43;;;;;;;7.45;4.93;;;;;;;15.10;100.00;93628.88;2129855;27;20039;-71
2022/08/06 01:44:48;;;;;;;6.95;4.88;;;;;;;15.05;100.00;93636.72;2118476;27;20046;-71
2022/08/06 01:45:52;;;;;;;9.80;4.85;;;;;;;15.13;100.00;93632.63;2121851;27;20794;-71
2022/08/06 01:46:58;;;;;;;5.53;4.82;;;;;;;15.03;100.00;93626.41;2129770;27;20038;-72
2022/08/06 01:48:04;;;;;;;6.63;4.63;;;;;;;15.00;100.00;93631.88;2130332;27;20057;-71
2022/08/06 01:49:08;;;;;;;6.47;4.20;;;;;;;14.98;100.00;93635.03;2130237;27;20468;-72
2022/08/06 01:50:10;;;;;;;6.18;4.47;;;;;;;14.90;100.00;93635.66;2128540;27;20034;-71
2022/08/06 01:51:11;;;;;;;6.38;4.38;;;;;;;14.92;100.00;93633.28;2130441;27;20110;-71
2022/08/06 01:52:14;;;;;;;5.68;4.35;;;;;;;15.02;100.00;93632.22;2129647;27;20022;-72
2022/08/06 01:53:21;;;;;;;8.02;5.28;;;;;;;14.97;100.00;93632.75;2130192;27;20026;-71
2022/08/06 01:54:24;;;;;;;8.27;4.90;;;;;;;14.94;100.00;93639.75;2130466;27;20029;-71
2022/08/06 01:55:29;;;;;;;6.38;4.13;;;;;;;14.95;100.00;93635.13;2129035;27;20066;-72
2022/08/06 01:56:33;;;;;;;7.50;4.13;;;;;;;14.98;100.00;93640.41;2130478;27;20050;-71
2022/08/06 01:57:36;;;;;;;7.00;4.53;;;;;;;14.94;100.00;93637.06;2129546;27;20031;-71
2022/08/06 01:58:42;;;;;;;6.85;4.40;;;;;;;14.89;100.00;93637.59;2130288;27;20097;-71
2022/08/06 01:59:47;;;;;;;5.30;4.45;;;;;;;14.86;100.00;93641.16;2130420;27;20035;-71
2022/08/06 02:00:51;;;;;;;5.88;4.30;;;;;;;14.93;100.00;93640.94;2130434;27;20027;-72
2022/08/06 02:01:56;;;;;;;8.48;4.22;;;;;;;14.76;100.00;93631.47;2130464;27;20026;-71
2022/08/06 02:03:03;;;;;;;5.65;3.92;;;;;;;14.89;100.00;93632.22;2129542;27;20079;-71
2022/08/06 02:04:06;;;;;;;7.70;4.55;;;;;;;14.85;100.00;93631.56;2130254;27;20418;-72
2022/08/06 02:05:09;;;;;;;4.47;3.75;;;;;;;14.73;100.00;93641.13;2130429;27;20082;-72
2022/08/06 02:06:16;;;;;;;4.85;4.30;;;;;;;14.69;100.00;93642.41;2130055;27;20022;-72
2022/08/06 02:07:19;;;;;;;4.93;4.18;;;;;;;14.74;100.00;93648.00;2130419;27;20064;-72
2022/08/06 02:08:22;;;;;;;4.82;4.30;;;;;;;14.73;100.00;93640.38;2129424;27;20099;-72
2022/08/06 02:09:24;;;;;;;7.30;4.32;;;;;;;14.76;100.00;93642.97;2130336;27;20038;-72
2022/08/06 02:10:28;;;;;;;5.25;4.20;;;;;;;14.67;100.00;93644.78;2130364;27;20030;-72
2022/08/06 02:11:32;;;;;;;8.43;4.10;;;;;;;14.76;100.00;93642.97;2130300;27;20038;-72
2022/08/06 02:12:37;;;;;;;8.40;4.50;;;;;;;14.70;100.00;93641.22;2130293;27;20495;-72
2022/08/06 02:14:52;;;;;;;;;;;;;;;14.70;100.00;93633.91;2141179;27;21076;-70
2022/08/06 02:15:55;;;;;;;8.85;4.05;;;;;;;14.63;100.00;93639.50;2138614;27;19919;-71
2022/08/06 02:16:59;;;;;;;10.30;4.20;;;;;;;14.56;100.00;93645.09;2146097;27;20033;-71
2022/08/06 02:18:05;;;;;;;6.32;3.70;;;;;;;14.59;100.00;93646.94;2142158;27;20023;-71
2022/08/06 02:19:07;;;;;;;4.55;4.10;;;;;;;14.63;100.00;93642.22;2128295;27;20031;-71
2022/08/06 02:20:11;;;;;;;5.60;4.13;;;;;;;14.57;100.00;93651.97;2127266;27;20468;-71
2022/08/06 02:21:20;;;;;;;4.72;4.20;;;;;;;14.51;100.00;93649.06;2141815;27;20085;-71
2022/08/06 02:22:22;;;;;;;5.82;3.85;;;;;;;14.55;100.00;93652.41;2138266;27;20065;-71
2022/08/06 02:23:27;;;;;;;4.82;4.25;;;;;;;14.51;100.00;93653.69;2139673;27;20022;-71
2022/08/06 02:24:30;;;;;;;6.63;4.30;;;;;;;14.52;100.00;93642.50;2137634;27;20041;-71
2022/08/06 02:25:33;;;;;;;6.05;4.32;;;;;;;14.52;100.00;93645.19;2137775;27;20030;-71
2022/08/06 02:26:38;;;;;;;5.63;4.50;;;;;;;14.53;100.00;93648.63;2142163;27;20014;-71
2022/08/06 02:27:45;;;;;;;6.13;4.32;;;;;;;14.49;100.00;93646.06;2140515;27;20018;-70
2022/08/06 02:28:48;;;;;;;6.90;4.60;;;;;;;14.43;100.00;93647.72;2139850;27;20027;-71
2022/08/06 02:29:52;;;;;;;7.47;3.97;;;;;;;14.47;100.00;93647.63;2137517;27;20031;-70
2022/08/06 02:30:56;;;;;;;7.72;4.55;;;;;;;14.51;100.00;93646.38;2140010;27;20069;-70
2022/08/06 02:31:58;;;;;;;6.20;4.00;;;;;;;14.52;100.00;93645.19;2144968;27;20105;-70
2022/08/06 02:32:58;;;;;;;6.15;3.67;;;;;;;14.52;100.00;93652.50;2143826;27;20044;-71
2022/08/06 02:34:00;;;;;;;6.10;4.43;;;;;;;14.62;100.00;93648.78;2139357;27;20049;-70
2022/08/06 02:35:02;;;;;;;9.70;4.57;;;;;;;14.61;100.00;93653.38;2141011;27;20038;-71
2022/08/06 02:36:12;;;;;;;5.43;4.32;;;;;;;14.56;100.00;93655.84;2141725;27;20026;-71
2022/08/06 02:37:21;;;;;;;6.15;3.80;;;;;;;14.56;100.00;93653.91;2138610;27;20041;-71
2022/08/06 02:38:30;;;;;;;5.22;3.97;;;;;;;14.63;100.00;93646.84;2128218;27;20109;-71
2022/08/06 02:39:49;;;;;;;7.90;4.70;;;;;;;14.57;100.00;93647.38;2128632;27;20036;-71
2022/08/06 02:40:56;;;;;;;7.10;3.92;;;;;;;14.55;100.00;93647.03;2145211;27;20034;-71
2022/08/06 02:42:16;;;;;;;5.13;3.92;;;;;;;14.49;100.00;93648.75;2137786;27;20821;-72
2022/08/06 02:43:22;;;;;;;7.82;4.40;;;;;;;14.53;100.00;93652.09;2142927;27;20075;-71
2022/08/06 02:44:50;;;;;;;10.13;4.03;;;;;;;14.51;100.00;93651.75;2138611;27;20027;-73
2022/08/06 02:46:14;;;;;;;4.78;3.60;;;;;;;14.55;100.00;93652.41;2144704;27;20022;-72
2022/08/06 02:47:27;;;;;;;6.15;4.35;;;;;;;14.47;100.00;93659.13;2143067;27;20022;-71
2022/08/06 02:48:58;;;;;;;4.57;4.03;;;;;;;14.55;100.00;93657.78;2143529;27;20061;-71
2022/08/06 02:50:01;;;;;;;5.03;3.95;;;;;;;14.64;100.00;93657.16;2130657;27;20034;-71
2022/08/06 02:51:08;;;;;;;5.50;3.92;;;;;;;14.56;100.00;93653.91;2140025;27;20057;-71
2022/08/06 02:52:26;;;;;;;15.80;4.30;;;;;;;14.61;100.00;93656.06;2135912;27;20035;-72
2022/08/06 02:53:42;;;;;;;4.65;3.70;;;;;;;14.57;100.00;93651.97;2138445;27;20031;-71
2022/08/06 02:54:49;;;;;;;10.63;4.20;;;;;;;14.46;100.00;93654.19;2136963;27;20902;-72
2022/08/06 02:56:03;;;;;;;16.10;4.90;;;;;;;14.53;100.00;93645.94;2143326;27;20027;-72
2022/08/06 02:57:07;;;;;;;5.25;3.70;;;;;;;14.55;100.00;93654.34;2137573;27;20352;-71
2022/08/06 02:58:17;;;;;;;5.25;3.97;;;;;;;14.54;100.00;93650.16;2137135;27;20457;-72
2022/08/06 02:59:24;;;;;;;6.63;3.90;;;;;;;14.43;100.00;93655.78;2139771;27;20039;-72
2022/08/06 03:00:27;;;;;;;6.35;3.83;;;;;;;14.46;100.00;93651.50;2139106;27;20455;-72
2022/08/06 03:01:33;;;;;;;6.82;4.28;;;;;;;14.42;100.00;93653.53;2144501;27;20187;-72
2022/08/06 03:02:38;;;;;;;10.65;4.03;;;;;;;14.37;100.00;93644.06;2145032;27;20546;-72
2022/08/06 03:03:42;;;;;;;10.20;3.95;;;;;;;14.44;100.00;93646.53;2137144;27;20399;-72
2022/08/06 03:04:47;;;;;;;4.15;3.70;;;;;;;14.43;100.00;93644.28;2139650;27;20041;-72
2022/08/06 03:05:52;;;;;;;7.32;4.00;;;;;;;14.33;100.00;93646.84;2138382;27;20030;-72
2022/08/06 03:06:54;;;;;;;8.10;3.80;;;;;;;14.41;100.00;93649.34;2141823;27;20033;-72
2022/08/06 03:07:58;;;;;;;4.65;3.40;;;;;;;14.45;100.00;93647.31;2145226;27;20038;-72
2022/08/06 03:09:01;;;;;;;6.18;3.90;;;;;;;14.42;100.00;93648.16;2143680;27;20054;-72
2022/08/06 03:10:03;;;;;;;4.68;3.45;;;;;;;14.42;100.00;93648.91;2139351;27;20136;-72
2022/08/06 03:11:05;;;;;;;4.93;3.60;;;;;;;14.38;100.00;93642.88;2141354;27;20080;-72
2022/08/06 03:12:08;;;;;;;7.35;3.33;;;;;;;14.42;100.00;93643.53;2137538;27;20458;-72
2022/08/06 03:13:11;;;;;;;6.45;3.72;;;;;;;14.32;100.00;93648.03;2135601;27;20081;-72
2022/08/06 03:14:16;;;;;;;8.10;3.55;;;;;;;14.42;100.00;93642.78;2138813;27;20540;-72
2022/08/06 03:15:19;;;;;;;4.88;3.58;;;;;;;14.35;100.00;93651.78;2136500;27;20026;-72
2022/08/06 03:16:22;;;;;;;7.47;3.42;;;;;;;14.29;100.00;93650.81;2142824;27;20101;-72
2022/08/06 03:17:25;;;;;;;5.13;3.38;;;;;;;14.39;100.00;93649.75;2138137;27;20474;-72
2022/08/06 03:18:27;;;;;;;3.75;3.28;;;;;;;14.35;100.00;93644.50;2141159;27;20105;-71
2022/08/06 03:19:30;;;;;;;3.33;3.08;;;;;;;14.33;100.00;93652.22;2145144;27;20030;-72
2022/08/06 03:20:33;;;;;;;4.57;3.67;;;;;;;14.33;100.00;93654.16;2140818;27;20116;-72
2022/08/06 03:21:35;;;;;;;5.90;3.75;;;;;;;14.31;100.00;93653.81;2141129;27;20460;-71
2022/08/06 03:22:38;;;;;;;3.60;3.10;;;;;;;14.32;100.00;93648.03;2141178;27;20026;-71
2022/08/06 03:23:41;;;;;;;10.13;3.80;;;;;;;14.31;100.00;93648.44;2141161;27;20117;-72
2022/08/06 03:24:44;;;;;;;4.30;3.80;;;;;;;14.19;100.00;93649.91;2141606;27;20025;-72
2022/08/06 03:25:46;;;;;;;3.70;3.00;;;;;;;14.19;100.00;93654.56;2135512;27;20030;-72
2022/08/06 03:26:49;;;;;;;4.53;3.35;;;;;;;14.25;100.00;93650.91;2132619;27;20581;-71
2022/08/06 03:27:52;;;;;;;3.72;3.33;;;;;;;14.26;100.00;93652.41;2135398;27;20039;-72
2022/08/06 03:28:55;;;;;;;5.05;3.38;;;;;;;14.24;100.00;93646.72;2132061;27;20105;-72
2022/08/06 03:29:58;;;;;;;5.45;3.45;;;;;;;14.19;100.00;93649.91;2135345;27;20065;-71
2022/08/06 03:31:00;;;;;;;7.63;3.53;;;;;;;14.15;100.00;93654.63;2136239;27;20102;-72
2022/08/06 03:32:02;;;;;;;5.32;3.60;;;;;;;14.07;100.00;93648.69;2133926;27;20131;-72
2022/08/06 03:33:07;;;;;;;6.25;3.85;;;;;;;14.02;100.00;93648.47;2134988;27;20028;-71
2022/08/06 03:34:10;;;;;;;5.97;3.60;;;;;;;14.10;100.00;93655.91;2134710;27;20030;-71
2022/08/06 03:35:11;;;;;;;5.15;3.67;;;;;;;14.13;100.00;93648.16;2135889;27;20034;-72
2022/08/06 03:36:13;;;;;;;5.70;3.33;;;;;;;14.20;100.00;93650.69;2132717;27;20135;-71
2022/08/06 03:37:18;;;;;;;9.30;4.47;;;;;;;14.14;100.00;93655.81;2137933;27;20033;-71
2022/08/06 03:38:20;;;;;;;9.18;4.00;;;;;;;14.07;100.00;93658.69;2131404;27;20041;-71
2022/08/06 03:39:22;;;;;;;8.55;3.70;;;;;;;14.11;100.00;93656.66;2137314;27;20063;-71
2022/08/06 03:40:24;;;;;;;4.25;3.20;;;;;;;14.14;100.00;93650.44;2137471;27;20091;-71
2022/08/06 03:41:27;;;;;;;4.15;3.53;;;;;;;14.14;100.00;93649.69;2134539;27;20034;-71
2022/08/06 03:42:27;;;;;;;4.85;3.60;;;;;;;14.11;100.00;93657.41;2132117;27;20058;-71
2022/08/06 03:43:29;;;;;;;6.68;3.97;;;;;;;14.07;100.00;93654.06;2138195;27;20034;-71
2022/08/06 03:44:31;;;;;;;6.35;3.30;;;;;;;14.11;100.00;93659.34;2131245;27;20473;-71
2022/08/06 03:45:37;;;;;;;8.77;3.60;;;;;;;14.15;100.00;93661.94;2131349;27;20047;-71
2022/08/06 03:46:54;;;;;;;5.70;3.63;;;;;;;14.18;100.00;93659.19;2132917;27;20110;-71
2022/08/06 03:47:57;;;;;;;4.93;3.30;;;;;;;14.28;100.00;93655.44;2132001;27;20022;-71
2022/08/06 03:49:02;;;;;;;8.80;3.10;;;;;;;14.22;100.00;93662.50;2134179;27;20030;-71
2022/08/06 03:50:15;;;;;;;5.18;3.15;;;;;;;14.15;100.00;93653.88;2132046;27;20435;-71
2022/08/06 03:51:20;;;;;;;4.32;2.80;;;;;;;14.15;100.00;93653.88;2133645;27;20101;-72
2022/08/06 03:52:26;;;;;;;6.18;3.20;;;;;;;14.10;100.00;93655.16;2136336;27;20063;-71
2022/08/06 03:53:28;;;;;;;3.80;3.10;;;;;;;14.07;100.00;93662.13;2132036;27;20022;-72
2022/08/06 03:54:33;;;;;;;9.60;3.55;;;;;;;14.13;100.00;93656.22;2132426;27;20019;-71
2022/08/06 03:55:37;;;;;;;5.78;3.40;;;;;;;14.14;100.00;93660.44;2131363;27;20033;-72
2022/08/06 03:56:40;;;;;;;3.10;2.80;;;;;;;14.06;100.00;93657.94;2130885;27;20030;-71
2022/08/06 03:57:45;;;;;;;5.57;3.35;;;;;;;14.14;100.00;93661.19;2134966;27;20037;-71
2022/08/06 03:58:49;;;;;;;7.18;3.35;;;;;;;14.07;100.00;93664.81;2132575;27;20433;-71
2022/08/06 03:59:58;;;;;;;6.03;3.28;;;;;;;14.11;100.00;93659.34;2132966;27;20070;-70
2022/08/06 04:01:04;;;;;;;3.47;3.03;;;;;;;14.04;100.00;93659.53;2135906;27;20037;-71
2022/08/06 04:02:06;;;;;;;4.28;2.80;;;;;;;14.00;100.00;93658.88;2134683;27;20101;-71
2022/08/06 04:03:08;;;;;;;4.88;3.10;;;;;;;14.00;100.00;93670.38;2133179;27;20027;-71
2022/08/06 04:04:10;;;;;;;7.45;3.15;;;;;;;13.99;100.00;93668.13;2131412;27;20034;-71
2022/08/06 04:05:18;;;;;;;6.93;3.30;;;;;;;14.02;100.00;93665.34;2139431;27;20034;-71
2022/08/06 04:06:21;;;;;;;8.15;3.22;;;;;;;14.03;100.00;93674.91;2137506;27;20030;-71
2022/08/06 04:07:22;;;;;;;6.13;3.40;;;;;;;14.03;100.00;93672.22;2133304;27;20364;-71
2022/08/06 04:08:25;;;;;;;2.85;2.65;;;;;;;14.03;100.00;93674.16;2131045;27;20038;-71
2022/08/06 04:09:28;;;;;;;6.78;3.15;;;;;;;13.98;100.00;93672.00;2135898;27;20022;-70
2022/08/06 04:10:43;;;;;;;9.90;3.30;;;;;;;13.96;100.00;93677.78;2135847;27;20065;-71
2022/08/06 04:11:45;;;;;;;3.25;2.92;;;;;;;14.03;100.00;93677.59;2135095;27;20026;-71
2022/08/06 04:12:47;;;;;;;4.30;2.92;;;;;;;14.08;100.00;93679.75;2137187;27;20029;-71
2022/08/06 04:13:48;;;;;;;5.13;3.72;;;;;;;14.11;100.00;93678.16;2135340;27;20034;-71
2022/08/06 04:14:50;;;;;;;6.55;3.13;;;;;;;14.09;100.00;93680.50;2134826;27;20058;-71
2022/08/06 04:15:53;;;;;;;4.65;3.30;;;;;;;14.17;100.00;93679.16;2133611;27;20097;-71
2022/08/06 04:16:55;;;;;;;7.85;3.10;;;;;;;14.09;100.00;93681.28;2135716;27;20061;-71
2022/08/06 04:17:57;;;;;;;6.78;3.00;;;;;;;13.96;100.00;93677.78;2134775;27;20031;-71
2022/08/06 04:18:59;;;;;;;6.90;3.30;;;;;;;13.92;100.00;93679.81;2132386;27;20027;-70
2022/08/06 04:20:01;;;;;;;3.63;3.33;;;;;;;13.89;100.00;93683.34;2136469;27;20037;-71
2022/08/06 04:21:06;;;;;;;7.43;3.22;;;;;;;13.90;100.00;93684.84;2135339;27;20036;-71
2022/08/06 04:22:07;;;;;;;7.22;2.97;;;;;;;13.87;100.00;93693.75;2137186;27;20060;-71
2022/08/06 04:23:08;;;;;;;6.93;3.00;;;;;;;13.87;100.00;93685.69;2134684;27;20034;-71
2022/08/06 04:24:11;;;;;;;6.75;3.25;;;;;;;13.85;100.00;93683.44;2132868;27;20027;-71
2022/08/06 04:25:12;;;;;;;3.42;3.00;;;;;;;13.85;100.00;93683.44;2134225;27;20022;-71
2022/08/06 04:26:19;;;;;;;3.08;2.78;;;;;;;13.89;100.00;93688.72;2135038;27;20721;-71
2022/08/06 04:27:21;;;;;;;9.43;3.00;;;;;;;13.84;100.00;93681.16;2132835;27;20026;-71
2022/08/06 04:28:25;;;;;;;3.33;2.67;;;;;;;13.91;100.00;93686.34;2130955;27;20033;-71
2022/08/06 04:29:28;;;;;;;5.40;3.28;;;;;;;13.91;100.00;93686.34;2134363;27;20031;-71
2022/08/06 04:30:31;;;;;;;8.88;3.20;;;;;;;13.89;100.00;93685.28;2134016;27;20061;-71
2022/08/06 04:31:34;;;;;;;5.63;2.85;;;;;;;13.81;100.00;93690.06;2137082;27;20018;-71
2022/08/06 04:32:35;;;;;;;6.60;2.63;;;;;;;13.78;100.00;93689.00;2136530;27;20033;-70
2022/08/06 04:33:39;;;;;;;9.90;3.05;;;;;;;13.81;100.00;93687.38;2134819;27;20490;-71
2022/08/06 04:34:42;;;;;;;7.53;3.28;;;;;;;13.81;100.00;93695.44;2130226;27;20030;-71
2022/08/06 04:35:44;;;;;;;5.72;3.10;;;;;;;13.80;100.00;93694.69;2134745;27;20023;-71
2022/08/06 04:36:45;;;;;;;3.05;2.60;;;;;;;13.77;100.00;93698.22;2136868;27;20463;-71
2022/08/06 04:37:47;;;;;;;5.72;2.97;;;;;;;13.78;100.00;93696.28;2135918;27;20027;-70
2022/08/06 04:38:48;;;;;;;4.90;2.72;;;;;;;13.72;100.00;93697.97;2135239;27;20026;-71
2022/08/06 04:39:50;;;;;;;8.93;3.13;;;;;;;13.72;100.00;93696.03;2130632;27;20050;-71
2022/08/06 04:40:52;;;;;;;5.70;2.90;;;;;;;13.84;100.00;93692.66;2132508;27;20048;-71
2022/08/06 04:41:54;;;;;;;8.90;2.95;;;;;;;13.80;100.00;93704.69;2138265;27;20038;-71
2022/08/06 04:42:55;;;;;;;6.82;3.15;;;;;;;13.80;100.00;93705.44;2138420;27;20496;-71
2022/08/06 04:43:56;;;;;;;9.18;3.42;;;;;;;13.71;100.00;93702.59;2134316;27;20034;-71
2022/08/06 04:44:57;;;;;;;7.45;3.00;;;;;;;13.69;100.00;93701.50;2133418;27;20102;-71
2022/08/06 04:45:59;;;;;;;5.20;2.83;;;;;;;13.71;100.00;93699.91;2134500;27;20022;-71
2022/08/06 04:47:01;;;;;;;6.07;3.00;;;;;;;13.78;100.00;93699.75;2135333;27;20026;-71
2022/08/06 04:48:05;;;;;;;7.32;2.75;;;;;;;13.81;100.00;93698.13;2133152;27;20122;-71
2022/08/06 04:49:06;;;;;;;4.07;2.60;;;;;;;13.72;100.00;93706.03;2136156;27;20384;-71
2022/08/06 04:50:08;;;;;;;3.28;2.50;;;;;;;13.78;100.00;93710.50;2132976;27;20026;-71
2022/08/06 04:51:11;;;;;;;4.63;2.65;;;;;;;13.78;100.00;93701.66;2131929;27;20030;-71
2022/08/06 04:52:22;;;;;;;7.50;3.22;;;;;;;13.83;100.00;93701.16;2136895;27;20428;-71
2022/08/06 04:53:23;;;;;;;6.38;2.75;;;;;;;13.81;100.00;93706.19;2133092;27;20018;-71
2022/08/06 04:54:24;;;;;;;5.25;2.80;;;;;;;13.99;100.00;93709.19;2120051;27;20031;-71
2022/08/06 04:55:25;;;;;;;7.80;3.13;;;;;;;13.93;100.00;93705.50;2121325;27;20476;-71
2022/08/06 04:56:26;;;;;;;3.97;2.88;;;;;;;13.91;100.00;93707.09;2133723;27;20030;-71
2022/08/06 04:57:27;;;;;;;6.00;2.60;;;;;;;13.82;100.00;93710.38;2137936;27;20034;-71
2022/08/06 04:58:28;;;;;;;5.15;2.88;;;;;;;13.80;100.00;93708.13;2132383;27;20064;-71